sensor_id;sensor_type;location;lat;lon;timestamp;pressure;altitude;pressure_sealevel;temperature;humidity
83941;BME280;73976;68.386;23.636;2024-02-04T00:02:13;93248.09;;;-5.31;92.02
83941;BME280;73976;68.386;23.636;2024-02-04T00:04:41;93241.22;;;-5.37;92.49
83941;BME280;73976;68.386;23.636;2024-02-04T00:07:09;93263.94;;;-5.34;91.83
83941;BME280;73976;68.386;23.636;2024-02-04T00:09:36;93264.59;;;-5.45;92.47
83941;BME280;73976;68.386;23.636;2024-02-04T00:12:04;93269.00;;;-5.52;91.36
83941;BME280;73976;68.386;23.636;2024-02-04T00:14:33;93278.13;;;-5.56;91.99
83941;BME280;73976;68.386;23.636;2024-02-04T00:17:00;93265.75;;;-5.72;91.88
83941;BME280;73976;68.386;23.636;2024-02-04T00:19:27;93273.31;;;-5.77;91.84
83941;BME280;73976;68.386;23.636;2024-02-04T00:21:55;93285.19;;;-5.83;91.22
83941;BME280;73976;68.386;23.636;2024-02-04T00:24:23;93287.84;;;-5.96;91.34
83941;BME280;73976;68.386;23.636;2024-02-04T00:26:50;93289.81;;;-5.98;91.33
83941;BME280;73976;68.386;23.636;2024-02-04T00:29:17;93309.00;;;-6.00;91.58
83941;BME280;73976;68.386;23.636;2024-02-04T00:31:45;93308.38;;;-6.02;92.14
83941;BME280;73976;68.386;23.636;2024-02-04T00:34:12;93311.94;;;-5.97;92.20
83941;BME280;73976;68.386;23.636;2024-02-04T00:36:40;93322.41;;;-5.98;92.23
83941;BME280;73976;68.386;23.636;2024-02-04T00:39:07;93337.34;;;-5.82;92.68
83941;BME280;73976;68.386;23.636;2024-02-04T00:41:35;93317.25;;;-5.92;93.32
83941;BME280;73976;68.386;23.636;2024-02-04T00:44:03;93328.09;;;-5.83;92.61
83941;BME280;73976;68.386;23.636;2024-02-04T00:46:30;93315.28;;;-5.96;92.77
83941;BME280;73976;68.386;23.636;2024-02-04T00:48:57;93331.06;;;-5.86;92.94
83941;BME280;73976;68.386;23.636;2024-02-04T00:51:25;93313.31;;;-5.94;93.02
83941;BME280;73976;68.386;23.636;2024-02-04T00:53:53;93309.34;;;-5.90;92.92
83941;BME280;73976;68.386;23.636;2024-02-04T00:56:20;93341.66;;;-5.76;92.45
83941;BME280;73976;68.386;23.636;2024-02-04T00:58:47;93310.56;;;-5.99;92.67
83941;BME280;73976;68.386;23.636;2024-02-04T01:01:15;93313.94;;;-6.05;92.97
83941;BME280;73976;68.386;23.636;2024-02-04T01:03:42;93336.81;;;-5.97;92.67
83941;BME280;73976;68.386;23.636;2024-02-04T01:06:10;93311.63;;;-6.13;92.77
83941;BME280;73976;68.386;23.636;2024-02-04T01:08:37;93364.06;;;-5.90;91.46
83941;BME280;73976;68.386;23.636;2024-02-04T01:11:05;93365.25;;;-5.92;92.09
83941;BME280;73976;68.386;23.636;2024-02-04T01:13:33;93355.63;;;-6.10;91.75
83941;BME280;73976;68.386;23.636;2024-02-04T01:16:00;93351.88;;;-6.14;92.56
83941;BME280;73976;68.386;23.636;2024-02-04T01:18:28;93358.38;;;-6.11;91.48
83941;BME280;73976;68.386;23.636;2024-02-04T01:20:55;93368.50;;;-6.16;92.52
83941;BME280;73976;68.386;23.636;2024-02-04T01:23:23;93373.44;;;-6.21;91.34
83941;BME280;73976;68.386;23.636;2024-02-04T01:25:50;93369.09;;;-6.27;91.70
83941;BME280;73976;68.386;23.636;2024-02-04T01:28:17;93376.00;;;-6.28;92.07
83941;BME280;73976;68.386;23.636;2024-02-04T01:30:45;93381.53;;;-6.31;92.38
83941;BME280;73976;68.386;23.636;2024-02-04T01:33:12;93388.88;;;-6.34;91.54
83941;BME280;73976;68.386;23.636;2024-02-04T01:35:40;93380.38;;;-6.41;91.50
83941;BME280;73976;68.386;23.636;2024-02-04T01:38:07;93392.41;;;-6.35;92.28
83941;BME280;73976;68.386;23.636;2024-02-04T01:40:34;93373.88;;;-6.50;91.66
83941;BME280;73976;68.386;23.636;2024-02-04T01:43:03;93396.75;;;-6.36;91.88
83941;BME280;73976;68.386;23.636;2024-02-04T01:45:30;93420.03;;;-6.18;92.07
83941;BME280;73976;68.386;23.636;2024-02-04T01:47:58;93412.13;;;-6.29;91.90
83941;BME280;73976;68.386;23.636;2024-02-04T01:50:25;93404.66;;;-6.37;92.50
83941;BME280;73976;68.386;23.636;2024-02-04T01:52:53;93399.53;;;-6.44;91.68
83941;BME280;73976;68.386;23.636;2024-02-04T01:55:21;93429.72;;;-6.33;91.62
83941;BME280;73976;68.386;23.636;2024-02-04T01:57:49;93433.69;;;-6.43;92.06
83941;BME280;73976;68.386;23.636;2024-02-04T02:00:19;93417.31;;;-6.55;90.95
83941;BME280;73976;68.386;23.636;2024-02-04T02:02:47;93433.88;;;-6.51;91.44
83941;BME280;73976;68.386;23.636;2024-02-04T02:05:16;93439.00;;;-6.58;92.26
83941;BME280;73976;68.386;23.636;2024-02-04T02:07:44;93431.50;;;-6.59;91.36
83941;BME280;73976;68.386;23.636;2024-02-04T02:10:13;93450.03;;;-6.44;92.40
83941;BME280;73976;68.386;23.636;2024-02-04T02:12:48;93457.34;;;-6.41;92.46
83941;BME280;73976;68.386;23.636;2024-02-04T02:15:23;93427.16;;;-6.65;91.67
83941;BME280;73976;68.386;23.636;2024-02-04T02:17:57;93465.03;;;-6.41;91.24
83941;BME280;73976;68.386;23.636;2024-02-04T02:23:14;93438.59;;;-6.68;91.67
83941;BME280;73976;68.386;23.636;2024-02-04T02:25:49;93429.31;;;-6.82;90.73
83941;BME280;73976;68.386;23.636;2024-02-04T02:28:18;93452.41;;;-6.75;91.02
83941;BME280;73976;68.386;23.636;2024-02-04T02:30:46;93474.72;;;-6.69;90.25
83941;BME280;73976;68.386;23.636;2024-02-04T02:33:13;93477.25;;;-6.82;90.56
83941;BME280;73976;68.386;23.636;2024-02-04T02:35:41;93462.00;;;-7.10;89.12
83941;BME280;73976;68.386;23.636;2024-02-04T02:41:36;93454.41;;;-7.44;88.91
83941;BME280;73976;68.386;23.636;2024-02-04T02:44:07;93460.47;;;-7.58;89.34
83941;BME280;73976;68.386;23.636;2024-02-04T02:46:36;93474.00;;;-7.71;89.47
83941;BME280;73976;68.386;23.636;2024-02-04T02:49:04;93483.78;;;-7.81;88.95
83941;BME280;73976;68.386;23.636;2024-02-04T02:51:32;93487.47;;;-7.90;87.93
83941;BME280;73976;68.386;23.636;2024-02-04T02:53:59;93499.28;;;-7.89;89.36
83941;BME280;73976;68.386;23.636;2024-02-04T02:56:27;93478.69;;;-8.15;88.41
83941;BME280;73976;68.386;23.636;2024-02-04T02:58:54;93508.44;;;-8.07;89.17
83941;BME280;73976;68.386;23.636;2024-02-04T03:01:21;93483.31;;;-8.31;87.88
83941;BME280;73976;68.386;23.636;2024-02-04T03:03:50;93483.69;;;-8.34;87.69
83941;BME280;73976;68.386;23.636;2024-02-04T03:06:18;93503.97;;;-8.33;89.06
83941;BME280;73976;68.386;23.636;2024-02-04T03:08:45;93464.59;;;-8.59;88.45
83941;BME280;73976;68.386;23.636;2024-02-04T03:11:12;93475.97;;;-8.62;88.57
83941;BME280;73976;68.386;23.636;2024-02-04T03:13:40;93466.97;;;-8.79;88.44
83941;BME280;73976;68.386;23.636;2024-02-04T03:16:13;93474.66;;;-8.79;88.18
83941;BME280;73976;68.386;23.636;2024-02-04T03:18:41;93486.41;;;-8.84;88.28
83941;BME280;73976;68.386;23.636;2024-02-04T03:21:16;93509.69;;;-8.73;89.49
83941;BME280;73976;68.386;23.636;2024-02-04T03:23:44;93517.50;;;-8.81;87.30
83941;BME280;73976;68.386;23.636;2024-02-04T03:26:11;93510.69;;;-8.95;87.70
83941;BME280;73976;68.386;23.636;2024-02-04T03:28:43;93504.28;;;-9.05;87.78
83941;BME280;73976;68.386;23.636;2024-02-04T03:31:10;93509.94;;;-9.10;87.87
83941;BME280;73976;68.386;23.636;2024-02-04T03:33:38;93497.75;;;-9.29;87.48
83941;BME280;73976;68.386;23.636;2024-02-04T03:36:05;93513.56;;;-9.19;87.89
83941;BME280;73976;68.386;23.636;2024-02-04T03:38:33;93503.22;;;-9.32;88.53
83941;BME280;73976;68.386;23.636;2024-02-04T03:41:01;93513.78;;;-9.35;88.81
83941;BME280;73976;68.386;23.636;2024-02-04T03:43:29;93509.75;;;-9.44;88.12
83941;BME280;73976;68.386;23.636;2024-02-04T03:45:56;93522.69;;;-9.45;87.84
83941;BME280;73976;68.386;23.636;2024-02-04T03:48:24;93498.31;;;-9.62;88.79
83941;BME280;73976;68.386;23.636;2024-02-04T03:50:51;93532.81;;;-9.52;87.69
83941;BME280;73976;68.386;23.636;2024-02-04T03:53:19;93543.31;;;-9.47;88.04
83941;BME280;73976;68.386;23.636;2024-02-04T03:55:48;93538.28;;;-9.55;89.44
83941;BME280;73976;68.386;23.636;2024-02-04T03:58:15;93567.41;;;-9.35;88.75
83941;BME280;73976;68.386;23.636;2024-02-04T04:00:43;93531.97;;;-9.59;89.13
83941;BME280;73976;68.386;23.636;2024-02-04T04:03:10;93570.69;;;-9.41;89.38
83941;BME280;73976;68.386;23.636;2024-02-04T04:05:38;93550.34;;;-9.49;90.26
83941;BME280;73976;68.386;23.636;2024-02-04T04:08:05;93563.44;;;-9.37;89.95
83941;BME280;73976;68.386;23.636;2024-02-04T04:10:33;93549.28;;;-9.40;91.22
83941;BME280;73976;68.386;23.636;2024-02-04T04:13:00;93581.56;;;-9.03;89.69
83941;BME280;73976;68.386;23.636;2024-02-04T04:15:28;93553.72;;;-9.13;90.42
83941;BME280;73976;68.386;23.636;2024-02-04T04:17:55;93560.22;;;-8.96;90.96
83941;BME280;73976;68.386;23.636;2024-02-04T04:20:22;93572.75;;;-8.80;91.33
83941;BME280;73976;68.386;23.636;2024-02-04T04:22:50;93576.16;;;-8.73;91.70
83941;BME280;73976;68.386;23.636;2024-02-04T04:25:17;93562.78;;;-8.75;91.26
83941;BME280;73976;68.386;23.636;2024-02-04T04:27:45;93566.44;;;-8.63;91.58
83941;BME280;73976;68.386;23.636;2024-02-04T04:30:12;93598.34;;;-8.38;91.93
83941;BME280;73976;68.386;23.636;2024-02-04T04:32:39;93577.22;;;-8.46;92.09
83941;BME280;73976;68.386;23.636;2024-02-04T04:35:07;93585.56;;;-8.38;92.30
83941;BME280;73976;68.386;23.636;2024-02-04T04:37:34;93602.44;;;-8.22;91.29
83941;BME280;73976;68.386;23.636;2024-02-04T04:40:02;93573.78;;;-8.32;92.82
83941;BME280;73976;68.386;23.636;2024-02-04T04:42:29;93598.38;;;-8.10;92.26
83941;BME280;73976;68.386;23.636;2024-02-04T04:44:58;93579.41;;;-8.16;91.84
83941;BME280;73976;68.386;23.636;2024-02-04T04:47:25;93578.28;;;-8.13;92.61
83941;BME280;73976;68.386;23.636;2024-02-04T04:49:53;93581.44;;;-8.11;91.33
83941;BME280;73976;68.386;23.636;2024-02-04T04:52:20;93562.84;;;-8.26;92.32
83941;BME280;73976;68.386;23.636;2024-02-04T04:54:47;93613.91;;;-7.91;92.13
83941;BME280;73976;68.386;23.636;2024-02-04T04:57:15;93615.28;;;-7.88;91.77
83941;BME280;73976;68.386;23.636;2024-02-04T04:59:43;93612.28;;;-7.92;91.07
83941;BME280;73976;68.386;23.636;2024-02-04T05:02:10;93642.03;;;-7.69;92.16
83941;BME280;73976;68.386;23.636;2024-02-04T05:04:37;93624.78;;;-7.82;91.46
83941;BME280;73976;68.386;23.636;2024-02-04T05:07:05;93613.53;;;-7.88;92.20
83941;BME280;73976;68.386;23.636;2024-02-04T05:09:33;93624.22;;;-7.78;91.74
83941;BME280;73976;68.386;23.636;2024-02-04T05:12:02;93643.22;;;-7.65;92.16
83941;BME280;73976;68.386;23.636;2024-02-04T05:14:30;93636.16;;;-7.63;91.45
83941;BME280;73976;68.386;23.636;2024-02-04T05:16:58;93646.41;;;-7.63;92.48
83941;BME280;73976;68.386;23.636;2024-02-04T05:19:26;93633.38;;;-7.68;91.35
83941;BME280;73976;68.386;23.636;2024-02-04T05:21:54;93636.16;;;-7.63;92.59
83941;BME280;73976;68.386;23.636;2024-02-04T05:24:22;93625.25;;;-7.72;91.12
83941;BME280;73976;68.386;23.636;2024-02-04T05:26:50;93653.28;;;-7.64;91.40
83941;BME280;73976;68.386;23.636;2024-02-04T05:29:18;93653.53;;;-7.59;91.33
83941;BME280;73976;68.386;23.636;2024-02-04T05:31:45;93642.44;;;-7.66;91.83
83941;BME280;73976;68.386;23.636;2024-02-04T05:34:13;93638.84;;;-7.72;91.39
83941;BME280;73976;68.386;23.636;2024-02-04T05:36:40;93630.94;;;-7.77;91.13
83941;BME280;73976;68.386;23.636;2024-02-04T05:39:10;93639.69;;;-7.64;92.24
83941;BME280;73976;68.386;23.636;2024-02-04T05:41:39;93676.13;;;-7.41;91.47
83941;BME280;73976;68.386;23.636;2024-02-04T05:44:07;93661.25;;;-7.52;91.60
83941;BME280;73976;68.386;23.636;2024-02-04T05:46:36;93687.19;;;-7.34;92.25
83941;BME280;73976;68.386;23.636;2024-02-04T05:49:04;93676.13;;;-7.41;92.21
83941;BME280;73976;68.386;23.636;2024-02-04T05:51:37;93693.56;;;-7.30;91.75
83941;BME280;73976;68.386;23.636;2024-02-04T05:54:04;93684.44;;;-7.33;92.51
83941;BME280;73976;68.386;23.636;2024-02-04T05:56:32;93668.19;;;-7.46;92.57
83941;BME280;73976;68.386;23.636;2024-02-04T05:58:59;93687.56;;;-7.37;92.21
83941;BME280;73976;68.386;23.636;2024-02-04T06:01:27;93682.81;;;-7.40;92.22
83941;BME280;73976;68.386;23.636;2024-02-04T06:03:54;93702.81;;;-7.29;92.73
83941;BME280;73976;68.386;23.636;2024-02-04T06:06:22;93698.81;;;-7.38;92.07
83941;BME280;73976;68.386;23.636;2024-02-04T06:08:49;93702.94;;;-7.37;92.67
83941;BME280;73976;68.386;23.636;2024-02-04T06:11:16;93721.31;;;-7.34;91.74
83941;BME280;73976;68.386;23.636;2024-02-04T06:13:44;93719.91;;;-7.36;91.48
83941;BME280;73976;68.386;23.636;2024-02-04T06:16:12;93743.69;;;-7.21;90.82
83941;BME280;73976;68.386;23.636;2024-02-04T06:18:39;93734.91;;;-7.33;92.01
83941;BME280;73976;68.386;23.636;2024-02-04T06:21:07;93755.09;;;-7.24;91.27
83941;BME280;73976;68.386;23.636;2024-02-04T06:23:34;93758.44;;;-7.23;90.97
83941;BME280;73976;68.386;23.636;2024-02-04T06:26:02;93709.53;;;-7.49;90.90
83941;BME280;73976;68.386;23.636;2024-02-04T06:28:29;93738.44;;;-7.34;91.26
83941;BME280;73976;68.386;23.636;2024-02-04T06:30:57;93725.41;;;-7.39;92.36
83941;BME280;73976;68.386;23.636;2024-02-04T06:33:24;93749.56;;;-7.27;91.85
83941;BME280;73976;68.386;23.636;2024-02-04T06:35:52;93741.00;;;-7.34;91.66
83941;BME280;73976;68.386;23.636;2024-02-04T06:38:20;93758.94;;;-7.34;91.31
83941;BME280;73976;68.386;23.636;2024-02-04T06:40:48;93734.66;;;-7.38;92.27
83941;BME280;73976;68.386;23.636;2024-02-04T06:43:15;93768.44;;;-7.28;91.62
83941;BME280;73976;68.386;23.636;2024-02-04T06:45:42;93750.47;;;-7.35;91.96
83941;BME280;73976;68.386;23.636;2024-02-04T06:48:11;93749.44;;;-7.40;91.27
83941;BME280;73976;68.386;23.636;2024-02-04T06:50:38;93753.41;;;-7.38;91.30
83941;BME280;73976;68.386;23.636;2024-02-04T06:53:06;93747.25;;;-7.43;90.99
83941;BME280;73976;68.386;23.636;2024-02-04T06:55:33;93763.84;;;-7.39;91.72
83941;BME280;73976;68.386;23.636;2024-02-04T06:58:01;93765.66;;;-7.33;91.50
83941;BME280;73976;68.386;23.636;2024-02-04T07:00:28;93744.66;;;-7.43;91.97
83941;BME280;73976;68.386;23.636;2024-02-04T07:02:55;93759.75;;;-7.34;91.46
83941;BME280;73976;68.386;23.636;2024-02-04T07:05:23;93771.56;;;-7.33;91.71
83941;BME280;73976;68.386;23.636;2024-02-04T07:07:52;93777.19;;;-7.23;91.84
83941;BME280;73976;68.386;23.636;2024-02-04T07:10:19;93768.25;;;-7.27;92.07
83941;BME280;73976;68.386;23.636;2024-02-04T07:12:47;93769.25;;;-7.28;91.69
83941;BME280;73976;68.386;23.636;2024-02-04T07:15:14;93786.28;;;-7.20;92.22
83941;BME280;73976;68.386;23.636;2024-02-04T07:17:42;93789.81;;;-7.21;91.17
83941;BME280;73976;68.386;23.636;2024-02-04T07:20:09;93784.69;;;-7.21;91.56
83941;BME280;73976;68.386;23.636;2024-02-04T07:22:37;93793.22;;;-7.14;91.23
83941;BME280;73976;68.386;23.636;2024-02-04T07:25:04;93806.84;;;-7.14;92.18
83941;BME280;73976;68.386;23.636;2024-02-04T07:27:32;93831.41;;;-6.98;91.85
83941;BME280;73976;68.386;23.636;2024-02-04T07:30:00;93813.16;;;-7.10;92.61
83941;BME280;73976;68.386;23.636;2024-02-04T07:32:27;93819.09;;;-7.09;92.17
83941;BME280;73976;68.386;23.636;2024-02-04T07:34:55;93831.19;;;-7.03;91.28
83941;BME280;73976;68.386;23.636;2024-02-04T07:37:22;93805.41;;;-7.16;91.59
83941;BME280;73976;68.386;23.636;2024-02-04T07:39:50;93825.38;;;-7.12;92.26
83941;BME280;73976;68.386;23.636;2024-02-04T07:42:17;93826.41;;;-7.06;92.01
83941;BME280;73976;68.386;23.636;2024-02-04T07:44:45;93828.63;;;-7.03;91.47
83941;BME280;73976;68.386;23.636;2024-02-04T07:47:13;93824.03;;;-7.08;91.76
83941;BME280;73976;68.386;23.636;2024-02-04T07:49:40;93827.75;;;-7.10;91.99
83941;BME280;73976;68.386;23.636;2024-02-04T07:52:08;93837.16;;;-6.96;91.42
83941;BME280;73976;68.386;23.636;2024-02-04T07:54:35;93844.22;;;-6.98;91.91
83941;BME280;73976;68.386;23.636;2024-02-04T07:57:03;93831.38;;;-7.05;92.13
83941;BME280;73976;68.386;23.636;2024-02-04T07:59:30;93862.28;;;-6.85;92.01
83941;BME280;73976;68.386;23.636;2024-02-04T08:01:58;93854.53;;;-6.92;92.41
83941;BME280;73976;68.386;23.636;2024-02-04T08:04:25;93844.84;;;-6.96;92.25
83941;BME280;73976;68.386;23.636;2024-02-04T08:06:54;93848.78;;;-6.94;91.81
83941;BME280;73976;68.386;23.636;2024-02-04T08:09:21;93864.69;;;-6.84;91.95
83941;BME280;73976;68.386;23.636;2024-02-04T08:11:48;93866.19;;;-6.89;91.49
83941;BME280;73976;68.386;23.636;2024-02-04T08:14:16;93863.22;;;-6.93;91.87
83941;BME280;73976;68.386;23.636;2024-02-04T08:16:44;93852.78;;;-6.91;92.30
83941;BME280;73976;68.386;23.636;2024-02-04T08:19:14;93875.31;;;-6.87;91.47
83941;BME280;73976;68.386;23.636;2024-02-04T08:21:41;93880.81;;;-6.90;91.08
83941;BME280;73976;68.386;23.636;2024-02-04T08:24:08;93873.66;;;-6.94;91.29
83941;BME280;73976;68.386;23.636;2024-02-04T08:26:36;93889.63;;;-6.92;91.25
83941;BME280;73976;68.386;23.636;2024-02-04T08:29:03;93890.25;;;-6.90;91.93
83941;BME280;73976;68.386;23.636;2024-02-04T08:31:32;93923.59;;;-6.69;91.90
83941;BME280;73976;68.386;23.636;2024-02-04T08:34:00;93905.56;;;-6.76;91.72
83941;BME280;73976;68.386;23.636;2024-02-04T08:36:29;93916.13;;;-6.64;92.41
83941;BME280;73976;68.386;23.636;2024-02-04T08:38:58;93895.84;;;-6.80;91.34
83941;BME280;73976;68.386;23.636;2024-02-04T08:41:25;93904.41;;;-6.73;91.80
83941;BME280;73976;68.386;23.636;2024-02-04T08:43:53;93894.91;;;-6.79;92.28
83941;BME280;73976;68.386;23.636;2024-02-04T08:46:20;93910.13;;;-6.71;91.96
83941;BME280;73976;68.386;23.636;2024-02-04T08:48:47;93896.91;;;-6.75;92.19
83941;BME280;73976;68.386;23.636;2024-02-04T08:51:15;93912.13;;;-6.73;91.87
83941;BME280;73976;68.386;23.636;2024-02-04T08:53:45;93913.31;;;-6.69;91.85
83941;BME280;73976;68.386;23.636;2024-02-04T08:56:12;93924.78;;;-6.65;92.09
83941;BME280;73976;68.386;23.636;2024-02-04T08:58:40;93908.56;;;-6.72;91.25
83941;BME280;73976;68.386;23.636;2024-02-04T09:01:07;93946.41;;;-6.53;91.73
83941;BME280;73976;68.386;23.636;2024-02-04T09:03:35;93923.47;;;-6.61;91.97
83941;BME280;73976;68.386;23.636;2024-02-04T09:06:02;93929.38;;;-6.61;91.54
83941;BME280;73976;68.386;23.636;2024-02-04T09:08:30;93912.59;;;-6.63;92.46
83941;BME280;73976;68.386;23.636;2024-02-04T09:10:57;93942.25;;;-6.54;91.44
83941;BME280;73976;68.386;23.636;2024-02-04T09:13:25;93932.38;;;-6.57;91.93
83941;BME280;73976;68.386;23.636;2024-02-04T09:15:52;93929.63;;;-6.56;91.57
83941;BME280;73976;68.386;23.636;2024-02-04T09:18:21;93939.31;;;-6.51;91.66
83941;BME280;73976;68.386;23.636;2024-02-04T09:20:49;93947.03;;;-6.51;91.29
83941;BME280;73976;68.386;23.636;2024-02-04T09:23:16;93936.31;;;-6.55;91.01
83941;BME280;73976;68.386;23.636;2024-02-04T09:25:44;93954.28;;;-6.55;92.17
83941;BME280;73976;68.386;23.636;2024-02-04T09:28:11;93948.22;;;-6.47;91.27
83941;BME280;73976;68.386;23.636;2024-02-04T09:30:38;93954.59;;;-6.43;92.19
83941;BME280;73976;68.386;23.636;2024-02-04T09:33:06;93948.84;;;-6.45;91.72
83941;BME280;73976;68.386;23.636;2024-02-04T09:35:35;93972.47;;;-6.29;92.01
83941;BME280;73976;68.386;23.636;2024-02-04T09:38:03;93981.63;;;-6.20;91.81
83941;BME280;73976;68.386;23.636;2024-02-04T09:40:33;93978.03;;;-6.25;91.82
83941;BME280;73976;68.386;23.636;2024-02-04T09:43:01;93932.25;;;-6.49;91.14
83941;BME280;73976;68.386;23.636;2024-02-04T09:45:29;93970.16;;;-6.24;91.41
83941;BME280;73976;68.386;23.636;2024-02-04T09:47:58;93970.38;;;-6.19;91.97
83941;BME280;73976;68.386;23.636;2024-02-04T09:50:28;93981.06;;;-6.15;91.90
83941;BME280;73976;68.386;23.636;2024-02-04T09:52:58;93994.44;;;-5.99;91.89
83941;BME280;73976;68.386;23.636;2024-02-04T09:55:26;93977.34;;;-6.13;92.22
83941;BME280;73976;68.386;23.636;2024-02-04T09:57:56;93944.75;;;-6.40;91.23
83941;BME280;73976;68.386;23.636;2024-02-04T10:00:27;94002.50;;;-6.02;91.50
83941;BME280;73976;68.386;23.636;2024-02-04T10:02:56;94000.75;;;-6.01;91.55
83941;BME280;73976;68.386;23.636;2024-02-04T10:05:25;94004.28;;;-6.02;91.54
83941;BME280;73976;68.386;23.636;2024-02-04T10:07:53;93999.13;;;-6.02;91.51
83941;BME280;73976;68.386;23.636;2024-02-04T10:10:20;94029.72;;;-5.86;92.16
83941;BME280;73976;68.386;23.636;2024-02-04T10:12:58;94001.72;;;-6.02;91.25
83941;BME280;73976;68.386;23.636;2024-02-04T10:15:30;94005.50;;;-5.98;91.96
83941;BME280;73976;68.386;23.636;2024-02-04T10:17:58;94011.03;;;-6.01;91.94
83941;BME280;73976;68.386;23.636;2024-02-04T10:20:25;94024.94;;;-5.89;92.55
83941;BME280;73976;68.386;23.636;2024-02-04T10:22:53;94004.91;;;-6.00;92.17
83941;BME280;73976;68.386;23.636;2024-02-04T10:25:21;94033.69;;;-5.77;91.55
83941;BME280;73976;68.386;23.636;2024-02-04T10:27:48;94024.75;;;-5.88;91.85
83941;BME280;73976;68.386;23.636;2024-02-04T10:30:19;94040.41;;;-5.76;91.99
83941;BME280;73976;68.386;23.636;2024-02-04T10:32:51;94042.34;;;-5.78;92.37
83941;BME280;73976;68.386;23.636;2024-02-04T10:35:23;94035.22;;;-5.89;92.53
83941;BME280;73976;68.386;23.636;2024-02-04T10:37:51;94057.47;;;-5.68;92.48
83941;BME280;73976;68.386;23.636;2024-02-04T10:40:19;94018.56;;;-5.93;91.58
83941;BME280;73976;68.386;23.636;2024-02-04T10:42:46;94066.19;;;-5.63;92.03
83941;BME280;73976;68.386;23.636;2024-02-04T10:45:17;94059.03;;;-5.68;91.99
83941;BME280;73976;68.386;23.636;2024-02-04T10:47:53;94045.56;;;-5.76;92.02
83941;BME280;73976;68.386;23.636;2024-02-04T10:50:24;94078.66;;;-5.60;91.80
83941;BME280;73976;68.386;23.636;2024-02-04T10:52:55;94071.75;;;-5.59;92.18
83941;BME280;73976;68.386;23.636;2024-02-04T10:55:27;94073.41;;;-5.52;92.93
83941;BME280;73976;68.386;23.636;2024-02-04T10:57:56;94053.97;;;-5.61;92.38
83941;BME280;73976;68.386;23.636;2024-02-04T11:00:25;94058.72;;;-5.58;92.32
83941;BME280;73976;68.386;23.636;2024-02-04T11:02:54;94031.44;;;-5.59;92.95
83941;BME280;73976;68.386;23.636;2024-02-04T11:05:23;94072.53;;;-5.31;92.64
83941;BME280;73976;68.386;23.636;2024-02-04T11:07:51;94067.19;;;-5.36;91.99
83941;BME280;73976;68.386;23.636;2024-02-04T11:10:20;94087.75;;;-5.30;91.98
83941;BME280;73976;68.386;23.636;2024-02-04T11:12:49;94113.16;;;-5.20;92.90
83941;BME280;73976;68.386;23.636;2024-02-04T11:15:18;94120.69;;;-5.19;92.47
83941;BME280;73976;68.386;23.636;2024-02-04T11:21:28;94103.81;;;-5.28;92.33
83941;BME280;73976;68.386;23.636;2024-02-04T11:27:01;94102.06;;;-5.21;92.17
83941;BME280;73976;68.386;23.636;2024-02-04T11:29:29;94084.59;;;-5.32;92.93
83941;BME280;73976;68.386;23.636;2024-02-04T11:31:56;94130.03;;;-5.11;91.95
83941;BME280;73976;68.386;23.636;2024-02-04T11:34:26;94137.38;;;-5.08;92.62
83941;BME280;73976;68.386;23.636;2024-02-04T11:36:54;94143.19;;;-5.00;92.11
83941;BME280;73976;68.386;23.636;2024-02-04T11:39:22;94110.97;;;-5.23;92.05
83941;BME280;73976;68.386;23.636;2024-02-04T11:41:51;94111.09;;;-5.31;92.22
83941;BME280;73976;68.386;23.636;2024-02-04T11:44:26;94136.13;;;-5.19;92.43
83941;BME280;73976;68.386;23.636;2024-02-04T11:46:55;94151.59;;;-5.12;92.61
83941;BME280;73976;68.386;23.636;2024-02-04T11:49:25;94142.84;;;-5.18;92.58
83941;BME280;73976;68.386;23.636;2024-02-04T11:51:54;94146.03;;;-5.16;92.80
83941;BME280;73976;68.386;23.636;2024-02-04T11:54:22;94145.28;;;-5.10;92.70
83941;BME280;73976;68.386;23.636;2024-02-04T11:56:51;94177.44;;;-4.93;93.26
83941;BME280;73976;68.386;23.636;2024-02-04T11:59:23;94166.72;;;-5.03;93.13
83941;BME280;73976;68.386;23.636;2024-02-04T12:01:55;94167.66;;;-5.04;92.58
83941;BME280;73976;68.386;23.636;2024-02-04T12:04:23;94152.22;;;-5.10;92.52
83941;BME280;73976;68.386;23.636;2024-02-04T12:06:51;94168.72;;;-4.98;93.14
83941;BME280;73976;68.386;23.636;2024-02-04T12:09:19;94170.34;;;-4.91;92.53
83941;BME280;73976;68.386;23.636;2024-02-04T12:11:46;94187.00;;;-4.87;92.72
83941;BME280;73976;68.386;23.636;2024-02-04T12:14:14;94181.22;;;-4.89;92.86
83941;BME280;73976;68.386;23.636;2024-02-04T12:16:42;94179.41;;;-4.95;92.42
83941;BME280;73976;68.386;23.636;2024-02-04T12:19:09;94135.66;;;-5.29;92.50
83941;BME280;73976;68.386;23.636;2024-02-04T12:21:39;94189.31;;;-4.92;92.78
83941;BME280;73976;68.386;23.636;2024-02-04T12:24:09;94177.97;;;-5.04;92.22
83941;BME280;73976;68.386;23.636;2024-02-04T12:26:37;94189.25;;;-5.05;93.06
83941;BME280;73976;68.386;23.636;2024-02-04T12:29:05;94159.00;;;-5.24;92.22
83941;BME280;73976;68.386;23.636;2024-02-04T12:31:33;94207.50;;;-5.00;93.02
83941;BME280;73976;68.386;23.636;2024-02-04T12:34:01;94199.28;;;-5.10;92.48
83941;BME280;73976;68.386;23.636;2024-02-04T12:36:31;94247.16;;;-4.88;93.45
83941;BME280;73976;68.386;23.636;2024-02-04T12:39:00;94213.75;;;-5.09;92.76
83941;BME280;73976;68.386;23.636;2024-02-04T12:41:28;94219.28;;;-5.12;93.47
83941;BME280;73976;68.386;23.636;2024-02-04T12:43:58;94251.31;;;-4.87;93.55
83941;BME280;73976;68.386;23.636;2024-02-04T12:46:27;94265.00;;;-4.86;93.64
83941;BME280;73976;68.386;23.636;2024-02-04T12:48:56;94241.91;;;-5.01;93.22
83941;BME280;73976;68.386;23.636;2024-02-04T12:51:31;94254.63;;;-4.93;93.22
83941;BME280;73976;68.386;23.636;2024-02-04T12:56:51;94278.44;;;-4.84;93.03
83941;BME280;73976;68.386;23.636;2024-02-04T12:59:31;94276.88;;;-4.85;93.81
83941;BME280;73976;68.386;23.636;2024-02-04T13:02:00;94256.97;;;-4.98;93.06
83941;BME280;73976;68.386;23.636;2024-02-04T13:09:45;94285.69;;;-4.94;92.52
83941;BME280;73976;68.386;23.636;2024-02-04T13:12:14;94301.78;;;-4.86;93.43
83941;BME280;73976;68.386;23.636;2024-02-04T13:14:42;94275.72;;;-5.04;93.46
83941;BME280;73976;68.386;23.636;2024-02-04T13:17:11;94302.16;;;-4.89;93.18